sensor_id;sensor_type;location;lat;lon;timestamp;pressure;altitude;pressure_sealevel;temperature;humidity
7105;BME280;3594;42.152;24.714;2022-12-08T00:00:07;-23966.50;;;5.37;nan
7105;BME280;3594;42.152;24.714;2022-12-08T00:02:32;-23968.63;;;5.44;nan
7105;BME280;3594;42.152;24.714;2022-12-08T00:04:58;-23955.41;;;4.97;nan
7105;BME280;3594;42.152;24.714;2022-12-08T00:07:41;-23963.94;;;5.27;nan
7105;BME280;3594;42.152;24.714;2022-12-08T00:10:25;-23959.81;;;5.13;nan
7105;BME280;3594;42.152;24.714;2022-12-08T00:12:51;-23959.97;;;5.13;nan
7105;BME280;3594;42.152;24.714;2022-12-08T00:17:42;-23978.44;;;5.79;nan
7105;BME280;3594;42.152;24.714;2022-12-08T00:20:07;-23970.47;;;5.51;nan
7105;BME280;3594;42.152;24.714;2022-12-08T00:22:33;-23980.59;;;5.87;nan
7105;BME280;3594;42.152;24.714;2022-12-08T00:24:58;-23980.72;;;5.87;nan
7105;BME280;3594;42.152;24.714;2022-12-08T00:27:24;-23973.34;;;5.61;nan
7105;BME280;3594;42.152;24.714;2022-12-08T00:29:49;-23973.19;;;5.60;nan
7105;BME280;3594;42.152;24.714;2022-12-08T00:32:14;-23973.91;;;5.63;nan
7105;BME280;3594;42.152;24.714;2022-12-08T00:34:40;-23986.25;;;6.07;nan
7105;BME280;3594;42.152;24.714;2022-12-08T00:37:05;-23977.88;;;5.77;nan
7105;BME280;3594;42.152;24.714;2022-12-08T00:39:31;-23984.69;;;6.01;nan
7105;BME280;3594;42.152;24.714;2022-12-08T00:41:56;-23988.53;;;6.15;nan
7105;BME280;3594;42.152;24.714;2022-12-08T00:44:38;-23962.38;;;5.22;nan
7105;BME280;3594;42.152;24.714;2022-12-08T00:47:03;-23990.09;;;6.20;nan
7105;BME280;3594;42.152;24.714;2022-12-08T00:49:29;-23982.44;;;5.93;nan
7105;BME280;3594;42.152;24.714;2022-12-08T00:51:55;-23985.28;;;6.03;nan
7105;BME280;3594;42.152;24.714;2022-12-08T00:54:21;-23984.00;;;5.99;nan
7105;BME280;3594;42.152;24.714;2022-12-08T00:56:49;-23986.13;;;6.06;nan
7105;BME280;3594;42.152;24.714;2022-12-08T00:59:15;-23988.13;;;6.13;nan
7105;BME280;3594;42.152;24.714;2022-12-08T01:01:43;-23987.97;;;6.13;nan
7105;BME280;3594;42.152;24.714;2022-12-08T01:04:12;-23985.97;;;6.06;nan
7105;BME280;3594;42.152;24.714;2022-12-08T01:06:40;-23983.84;;;5.98;nan
7105;BME280;3594;42.152;24.714;2022-12-08T01:09:06;-23990.81;;;6.23;nan
7105;BME280;3594;42.152;24.714;2022-12-08T01:11:32;-23986.97;;;6.09;nan
7105;BME280;3594;42.152;24.714;2022-12-08T01:13:57;-23987.25;;;6.10;nan
7105;BME280;3594;42.152;24.714;2022-12-08T01:16:28;-23939.75;;;4.41;nan
7105;BME280;3594;42.152;24.714;2022-12-08T01:18:56;-23978.44;;;5.79;nan
7105;BME280;3594;42.152;24.714;2022-12-08T01:21:21;-23980.16;;;5.85;nan
7105;BME280;3594;42.152;24.714;2022-12-08T01:23:47;-23986.69;;;6.08;nan
7105;BME280;3594;42.152;24.714;2022-12-08T01:26:14;-23980.72;;;5.87;nan
7105;BME280;3594;42.152;24.714;2022-12-08T01:28:40;-23986.13;;;6.06;nan
7105;BME280;3594;42.152;24.714;2022-12-08T01:31:10;-23986.69;;;6.08;nan
7105;BME280;3594;42.152;24.714;2022-12-08T01:33:37;-23980.28;;;5.86;nan
7105;BME280;3594;42.152;24.714;2022-12-08T01:36:03;-23983.28;;;5.96;nan
7105;BME280;3594;42.152;24.714;2022-12-08T01:38:29;-23979.16;;;5.82;nan
7105;BME280;3594;42.152;24.714;2022-12-08T01:40:55;-23986.13;;;6.06;nan
7105;BME280;3594;42.152;24.714;2022-12-08T01:43:21;-23986.13;;;6.06;nan
7105;BME280;3594;42.152;24.714;2022-12-08T01:45:46;-23978.03;;;5.77;nan
7105;BME280;3594;42.152;24.714;2022-12-08T01:48:19;-23980.59;;;5.87;nan
7105;BME280;3594;42.152;24.714;2022-12-08T01:50:46;-23980.28;;;5.86;nan
7105;BME280;3594;42.152;24.714;2022-12-08T01:53:22;-23983.00;;;5.95;nan
7105;BME280;3594;42.152;24.714;2022-12-08T01:55:53;-23990.25;;;6.21;nan
7105;BME280;3594;42.152;24.714;2022-12-08T01:58:41;-23994.66;;;6.37;nan
7105;BME280;3594;42.152;24.714;2022-12-08T02:01:08;-23992.66;;;6.30;nan
7105;BME280;3594;42.152;24.714;2022-12-08T02:03:42;-23992.38;;;6.29;nan
7105;BME280;3594;42.152;24.714;2022-12-08T02:06:10;-23979.31;;;5.82;nan
7105;BME280;3594;42.152;24.714;2022-12-08T02:08:38;-23977.16;;;5.74;nan
7105;BME280;3594;42.152;24.714;2022-12-08T02:11:07;-23988.13;;;6.13;nan
7105;BME280;3594;42.152;24.714;2022-12-08T02:13:33;-23981.72;;;5.91;nan
7105;BME280;3594;42.152;24.714;2022-12-08T02:21:22;-23987.41;;;6.11;nan
7105;BME280;3594;42.152;24.714;2022-12-08T02:44:19;-23980.28;;;5.86;nan
7105;BME280;3594;42.152;24.714;2022-12-08T02:46:51;-23981.00;;;5.88;nan
7105;BME280;3594;42.152;24.714;2022-12-08T02:49:18;-23981.28;;;5.89;nan
7105;BME280;3594;42.152;24.714;2022-12-08T02:51:44;-23986.13;;;6.06;nan
7105;BME280;3594;42.152;24.714;2022-12-08T02:54:09;-23991.22;;;6.25;nan
7105;BME280;3594;42.152;24.714;2022-12-08T03:05:01;-23973.63;;;5.62;nan
7105;BME280;3594;42.152;24.714;2022-12-08T03:08:02;-23983.13;;;5.96;nan
7105;BME280;3594;42.152;24.714;2022-12-08T03:10:45;-23979.31;;;5.82;nan
7105;BME280;3594;42.152;24.714;2022-12-08T03:13:15;-23985.97;;;6.06;nan
7105;BME280;3594;42.152;24.714;2022-12-08T03:15:44;-23971.63;;;5.55;nan
7105;BME280;3594;42.152;24.714;2022-12-08T03:18:14;-23964.66;;;5.30;nan
7105;BME280;3594;42.152;24.714;2022-12-08T03:20:42;-23965.66;;;5.33;nan
7105;BME280;3594;42.152;24.714;2022-12-08T03:23:11;-23959.97;;;5.13;nan
7105;BME280;3594;42.152;24.714;2022-12-08T03:25:43;-23967.50;;;5.40;nan
7105;BME280;3594;42.152;24.714;2022-12-08T03:28:10;-23969.34;;;5.47;nan
7105;BME280;3594;42.152;24.714;2022-12-08T03:30:39;-23969.78;;;5.48;nan
7105;BME280;3594;42.152;24.714;2022-12-08T03:33:12;-23970.47;;;5.51;nan
7105;BME280;3594;42.152;24.714;2022-12-08T03:35:40;-23965.22;;;5.32;nan
7105;BME280;3594;42.152;24.714;2022-12-08T03:38:10;-23967.78;;;5.41;nan
7105;BME280;3594;42.152;24.714;2022-12-08T03:40:36;-23973.63;;;5.62;nan
7105;BME280;3594;42.152;24.714;2022-12-08T03:43:02;-23971.19;;;5.53;nan
7105;BME280;3594;42.152;24.714;2022-12-08T03:45:27;-23979.31;;;5.82;nan
7105;BME280;3594;42.152;24.714;2022-12-08T03:47:53;-23976.16;;;5.71;nan
7105;BME280;3594;42.152;24.714;2022-12-08T03:50:18;-23983.56;;;5.97;nan
7105;BME280;3594;42.152;24.714;2022-12-08T03:52:44;-23979.31;;;5.82;nan
7105;BME280;3594;42.152;24.714;2022-12-08T03:55:09;-23981.44;;;5.90;nan
7105;BME280;3594;42.152;24.714;2022-12-08T03:57:35;-23968.50;;;5.44;nan
7105;BME280;3594;42.152;24.714;2022-12-08T04:00:01;-23978.72;;;5.80;nan
7105;BME280;3594;42.152;24.714;2022-12-08T04:02:26;-23976.88;;;5.73;nan
7105;BME280;3594;42.152;24.714;2022-12-08T04:04:51;-23956.25;;;5.00;nan
7105;BME280;3594;42.152;24.714;2022-12-08T04:07:17;-23968.06;;;5.42;nan
7105;BME280;3594;42.152;24.714;2022-12-08T04:09:42;-23972.91;;;5.59;nan
7105;BME280;3594;42.152;24.714;2022-12-08T04:12:09;-23972.34;;;5.57;nan
7105;BME280;3594;42.152;24.714;2022-12-08T04:14:34;-23973.34;;;5.61;nan
7105;BME280;3594;42.152;24.714;2022-12-08T04:17:00;-23963.38;;;5.25;nan
7105;BME280;3594;42.152;24.714;2022-12-08T04:19:25;-23965.66;;;5.33;nan
7105;BME280;3594;42.152;24.714;2022-12-08T04:21:51;-23973.63;;;5.62;nan
7105;BME280;3594;42.152;24.714;2022-12-08T04:24:16;-23979.31;;;5.82;nan
7105;BME280;3594;42.152;24.714;2022-12-08T04:26:41;-23979.31;;;5.82;nan
7105;BME280;3594;42.152;24.714;2022-12-08T04:29:07;-23970.47;;;5.51;nan
7105;BME280;3594;42.152;24.714;2022-12-08T04:31:32;-23966.38;;;5.36;nan
7105;BME280;3594;42.152;24.714;2022-12-08T04:33:58;-23968.94;;;5.45;nan
7105;BME280;3594;42.152;24.714;2022-12-08T04:36:23;-23978.59;;;5.79;nan
7105;BME280;3594;42.152;24.714;2022-12-08T04:38:48;-23981.28;;;5.89;nan
7105;BME280;3594;42.152;24.714;2022-12-08T04:41:14;-23985.84;;;6.05;nan
7105;BME280;3594;42.152;24.714;2022-12-08T04:43:39;-23982.44;;;5.93;nan
7105;BME280;3594;42.152;24.714;2022-12-08T04:46:09;-23986.41;;;6.07;nan
7105;BME280;3594;42.152;24.714;2022-12-08T04:48:38;-23981.72;;;5.91;nan
7105;BME280;3594;42.152;24.714;2022-12-08T04:51:04;-23973.47;;;5.61;nan
7105;BME280;3594;42.152;24.714;2022-12-08T04:53:30;-23977.03;;;5.74;nan
7105;BME280;3594;42.152;24.714;2022-12-08T04:55:56;-23976.75;;;5.73;nan
7105;BME280;3594;42.152;24.714;2022-12-08T04:58:21;-23986.41;;;6.07;nan
7105;BME280;3594;42.152;24.714;2022-12-08T05:00:47;-23985.56;;;6.04;nan
7105;BME280;3594;42.152;24.714;2022-12-08T05:03:13;-23988.25;;;6.14;nan
7105;BME280;3594;42.152;24.714;2022-12-08T05:05:40;-23990.66;;;6.22;nan
7105;BME280;3594;42.152;24.714;2022-12-08T05:08:07;-23989.69;;;6.19;nan
7105;BME280;3594;42.152;24.714;2022-12-08T05:10:32;-23980.16;;;5.85;nan
7105;BME280;3594;42.152;24.714;2022-12-08T05:12:58;-23989.53;;;6.18;nan
7105;BME280;3594;42.152;24.714;2022-12-08T05:15:24;-23990.53;;;6.22;nan
7105;BME280;3594;42.152;24.714;2022-12-08T05:17:49;-23979.72;;;5.84;nan
7105;BME280;3594;42.152;24.714;2022-12-08T05:20:15;-23992.66;;;6.30;nan
7105;BME280;3594;42.152;24.714;2022-12-08T05:22:40;-23996.34;;;6.43;nan
7105;BME280;3594;42.152;24.714;2022-12-08T05:25:06;-23987.81;;;6.12;nan
7105;BME280;3594;42.152;24.714;2022-12-08T05:27:31;-23987.41;;;6.11;nan
7105;BME280;3594;42.152;24.714;2022-12-08T05:29:57;-23981.56;;;5.90;nan
7105;BME280;3594;42.152;24.714;2022-12-08T05:32:43;-23990.53;;;6.22;nan
7105;BME280;3594;42.152;24.714;2022-12-08T05:35:26;-23990.53;;;6.22;nan
7105;BME280;3594;42.152;24.714;2022-12-08T05:37:51;-23992.50;;;6.29;nan
7105;BME280;3594;42.152;24.714;2022-12-08T05:40:18;-23968.50;;;5.44;nan
7105;BME280;3594;42.152;24.714;2022-12-08T05:42:43;-23985.84;;;6.05;nan
7105;BME280;3594;42.152;24.714;2022-12-08T05:45:09;-23993.22;;;6.32;nan
7105;BME280;3594;42.152;24.714;2022-12-08T05:47:34;-23983.72;;;5.98;nan
7105;BME280;3594;42.152;24.714;2022-12-08T05:50:00;-23992.38;;;6.29;nan
7105;BME280;3594;42.152;24.714;2022-12-08T05:52:25;-23983.72;;;5.98;nan
7105;BME280;3594;42.152;24.714;2022-12-08T05:54:51;-23995.63;;;6.40;nan
7105;BME280;3594;42.152;24.714;2022-12-08T05:57:17;-23992.50;;;6.29;nan
7105;BME280;3594;42.152;24.714;2022-12-08T05:59:42;-23994.22;;;6.35;nan
7105;BME280;3594;42.152;24.714;2022-12-08T06:02:08;-23997.19;;;6.46;nan
7105;BME280;3594;42.152;24.714;2022-12-08T06:04:34;-23989.81;;;6.19;nan
7105;BME280;3594;42.152;24.714;2022-12-08T06:06:59;-23998.91;;;6.52;nan
7105;BME280;3594;42.152;24.714;2022-12-08T06:09:25;-24001.88;;;6.62;nan
7105;BME280;3594;42.152;24.714;2022-12-08T06:11:50;-24002.03;;;6.63;nan
7105;BME280;3594;42.152;24.714;2022-12-08T06:14:16;-23996.06;;;6.42;nan
7105;BME280;3594;42.152;24.714;2022-12-08T06:16:41;-24003.31;;;6.68;nan
7105;BME280;3594;42.152;24.714;2022-12-08T06:19:07;-24007.41;;;6.82;nan
7105;BME280;3594;42.152;24.714;2022-12-08T06:21:32;-24008.41;;;6.86;nan
7105;BME280;3594;42.152;24.714;2022-12-08T06:23:58;-24001.31;;;6.60;nan
7105;BME280;3594;42.152;24.714;2022-12-08T06:26:24;-24009.97;;;6.91;nan
7105;BME280;3594;42.152;24.714;2022-12-08T06:28:49;-24006.84;;;6.80;nan
7105;BME280;3594;42.152;24.714;2022-12-08T06:31:24;-24012.81;;;7.01;nan
7105;BME280;3594;42.152;24.714;2022-12-08T06:33:50;-24012.09;;;6.99;nan
7105;BME280;3594;42.152;24.714;2022-12-08T06:36:18;-24011.94;;;6.98;nan
7105;BME280;3594;42.152;24.714;2022-12-08T06:38:44;-24006.13;;;6.78;nan
7105;BME280;3594;42.152;24.714;2022-12-08T06:41:10;-24012.25;;;6.99;nan
7105;BME280;3594;42.152;24.714;2022-12-08T06:43:36;-24012.53;;;7.00;nan
7105;BME280;3594;42.152;24.714;2022-12-08T06:46:04;-24014.78;;;7.08;nan
7105;BME280;3594;42.152;24.714;2022-12-08T06:48:29;-24014.66;;;7.08;nan
7105;BME280;3594;42.152;24.714;2022-12-08T06:50:55;-24015.22;;;7.10;nan
7105;BME280;3594;42.152;24.714;2022-12-08T06:53:20;-24006.84;;;6.80;nan
7105;BME280;3594;42.152;24.714;2022-12-08T06:55:50;-24014.22;;;7.06;nan
7105;BME280;3594;42.152;24.714;2022-12-08T06:58:17;-23990.09;;;6.20;nan
7105;BME280;3594;42.152;24.714;2022-12-08T07:00:43;-24006.56;;;6.79;nan
7105;BME280;3594;42.152;24.714;2022-12-08T07:03:09;-24018.34;;;7.21;nan
7105;BME280;3594;42.152;24.714;2022-12-08T07:05:36;-24011.81;;;6.98;nan
7105;BME280;3594;42.152;24.714;2022-12-08T07:08:02;-24015.22;;;7.10;nan
7105;BME280;3594;42.152;24.714;2022-12-08T07:10:27;-24010.81;;;6.94;nan
7105;BME280;3594;42.152;24.714;2022-12-08T07:12:53;-24017.63;;;7.19;nan
7105;BME280;3594;42.152;24.714;2022-12-08T07:15:18;-24011.09;;;6.95;nan
7105;BME280;3594;42.152;24.714;2022-12-08T07:17:44;-24013.66;;;7.04;nan
7105;BME280;3594;42.152;24.714;2022-12-08T07:20:10;-24025.56;;;7.47;nan
7105;BME280;3594;42.152;24.714;2022-12-08T07:22:35;-24021.59;;;7.33;nan
7105;BME280;3594;42.152;24.714;2022-12-08T07:25:00;-24030.09;;;7.63;nan
7105;BME280;3594;42.152;24.714;2022-12-08T07:27:26;-24026.41;;;7.50;nan
7105;BME280;3594;42.152;24.714;2022-12-08T07:29:51;-24020.19;;;7.28;nan
7105;BME280;3594;42.152;24.714;2022-12-08T07:32:17;-24031.81;;;7.69;nan
7105;BME280;3594;42.152;24.714;2022-12-08T07:34:42;-24030.09;;;7.63;nan
7105;BME280;3594;42.152;24.714;2022-12-08T07:37:08;-24030.81;;;7.66;nan
7105;BME280;3594;42.152;24.714;2022-12-08T07:39:33;-24027.84;;;7.55;nan
7105;BME280;3594;42.152;24.714;2022-12-08T07:41:59;-24025.28;;;7.46;nan
7105;BME280;3594;42.152;24.714;2022-12-08T07:44:24;-24014.78;;;7.08;nan
7105;BME280;3594;42.152;24.714;2022-12-08T07:46:49;-24015.34;;;7.10;nan
7105;BME280;3594;42.152;24.714;2022-12-08T07:49:15;-24013.50;;;7.04;nan
7105;BME280;3594;42.152;24.714;2022-12-08T07:51:40;-24026.00;;;7.48;nan
7105;BME280;3594;42.152;24.714;2022-12-08T07:54:10;-24032.22;;;7.71;nan
7105;BME280;3594;42.152;24.714;2022-12-08T07:56:36;-24033.94;;;7.77;nan
7105;BME280;3594;42.152;24.714;2022-12-08T07:59:01;-24035.06;;;7.81;nan
7105;BME280;3594;42.152;24.714;2022-12-08T08:01:31;-24027.41;;;7.53;nan
7105;BME280;3594;42.152;24.714;2022-12-08T08:03:58;-24035.78;;;7.83;nan
7105;BME280;3594;42.152;24.714;2022-12-08T08:06:28;-24033.22;;;7.74;nan
7105;BME280;3594;42.152;24.714;2022-12-08T08:08:54;-24025.00;;;7.45;nan
7105;BME280;3594;42.152;24.714;2022-12-08T08:11:19;-24033.50;;;7.75;nan
7105;BME280;3594;42.152;24.714;2022-12-08T08:13:45;-24028.13;;;7.56;nan
7105;BME280;3594;42.152;24.714;2022-12-08T08:16:11;-24034.06;;;7.77;nan
7105;BME280;3594;42.152;24.714;2022-12-08T08:18:38;-24036.34;;;7.85;nan
7105;BME280;3594;42.152;24.714;2022-12-08T08:21:04;-24035.91;;;7.84;nan
7105;BME280;3594;42.152;24.714;2022-12-08T08:23:30;-24034.63;;;7.79;nan
7105;BME280;3594;42.152;24.714;2022-12-08T08:26:00;-24032.66;;;7.72;nan
7105;BME280;3594;42.152;24.714;2022-12-08T08:28:27;-24035.78;;;7.83;nan
7105;BME280;3594;42.152;24.714;2022-12-08T08:30:52;-24025.84;;;7.48;nan
7105;BME280;3594;42.152;24.714;2022-12-08T08:33:18;-24027.84;;;7.55;nan
7105;BME280;3594;42.152;24.714;2022-12-08T08:35:43;-24047.38;;;8.25;nan
7105;BME280;3594;42.152;24.714;2022-12-08T08:38:09;-24047.53;;;8.25;nan
7105;BME280;3594;42.152;24.714;2022-12-08T08:40:35;-24049.38;;;8.32;nan
7105;BME280;3594;42.152;24.714;2022-12-08T08:43:00;-24053.63;;;8.47;nan
7105;BME280;3594;42.152;24.714;2022-12-08T08:45:26;-24057.72;;;8.62;nan
7105;BME280;3594;42.152;24.714;2022-12-08T08:47:52;-24050.66;;;8.36;nan
7105;BME280;3594;42.152;24.714;2022-12-08T08:50:17;-24052.91;;;8.45;nan
7105;BME280;3594;42.152;24.714;2022-12-08T08:52:43;-24042.44;;;8.07;nan
7105;BME280;3594;42.152;24.714;2022-12-08T08:55:08;-24050.78;;;8.37;nan
7105;BME280;3594;42.152;24.714;2022-12-08T08:57:34;-24053.63;;;8.47;nan
7105;BME280;3594;42.152;24.714;2022-12-08T08:59:59;-24051.63;;;8.40;nan
7105;BME280;3594;42.152;24.714;2022-12-08T09:02:25;-24066.91;;;8.95;nan
7105;BME280;3594;42.152;24.714;2022-12-08T09:04:50;-24052.19;;;8.42;nan
7105;BME280;3594;42.152;24.714;2022-12-08T09:07:16;-24059.41;;;8.68;nan
7105;BME280;3594;42.152;24.714;2022-12-08T09:09:41;-24046.69;;;8.22;nan
7105;BME280;3594;42.152;24.714;2022-12-08T09:12:07;-24060.84;;;8.73;nan
7105;BME280;3594;42.152;24.714;2022-12-08T09:14:33;-24065.50;;;8.90;nan
7105;BME280;3594;42.152;24.714;2022-12-08T09:16:58;-24062.94;;;8.80;nan
7105;BME280;3594;42.152;24.714;2022-12-08T09:19:24;-24061.97;;;8.77;nan
7105;BME280;3594;42.152;24.714;2022-12-08T09:21:49;-24075.53;;;9.25;nan
7105;BME280;3594;42.152;24.714;2022-12-08T09:24:15;-24077.38;;;9.32;nan
7105;BME280;3594;42.152;24.714;2022-12-08T09:26:42;-24070.88;;;9.09;nan
7105;BME280;3594;42.152;24.714;2022-12-08T09:29:08;-24082.47;;;9.50;nan
7105;BME280;3594;42.152;24.714;2022-12-08T09:31:34;-24073.41;;;9.18;nan
7105;BME280;3594;42.152;24.714;2022-12-08T09:34:00;-24070.44;;;9.07;nan
7105;BME280;3594;42.152;24.714;2022-12-08T09:36:26;-24061.53;;;8.75;nan
7105;BME280;3594;42.152;24.714;2022-12-08T09:38:51;-24073.56;;;9.18;nan
7105;BME280;3594;42.152;24.714;2022-12-08T09:46:12;-24078.50;;;9.36;nan
7105;BME280;3594;42.152;24.714;2022-12-08T09:48:41;-24080.78;;;9.44;nan
7105;BME280;3594;42.152;24.714;2022-12-08T09:51:07;-24077.38;;;9.32;nan
7105;BME280;3594;42.152;24.714;2022-12-08T09:53:34;-24081.06;;;9.45;nan
7105;BME280;3594;42.152;24.714;2022-12-08T09:56:25;-24075.13;;;9.24;nan
7105;BME280;3594;42.152;24.714;2022-12-08T09:59:03;-24074.13;;;9.20;nan
7105;BME280;3594;42.152;24.714;2022-12-08T10:01:32;-24075.41;;;9.25;nan
7105;BME280;3594;42.152;24.714;2022-12-08T10:03:59;-24054.75;;;8.51;nan
7105;BME280;3594;42.152;24.714;2022-12-08T10:07:17;-24062.94;;;8.80;nan
7105;BME280;3594;42.152;24.714;2022-12-08T10:09:38;-24073.84;;;9.19;nan
7105;BME280;3594;42.152;24.714;2022-12-08T10:17:44;-24071.16;;;9.10;nan
7105;BME280;3594;42.152;24.714;2022-12-08T10:20:17;-24076.25;;;9.28;nan
7105;BME280;3594;42.152;24.714;2022-12-08T10:22:45;-24071.44;;;9.11;nan
7105;BME280;3594;42.152;24.714;2022-12-08T10:27:42;-24076.53;;;9.29;nan
7105;BME280;3594;42.152;24.714;2022-12-08T10:30:12;-24071.31;;;9.10;nan
7105;BME280;3594;42.152;24.714;2022-12-08T10:32:39;-24076.53;;;9.29;nan
7105;BME280;3594;42.152;24.714;2022-12-08T10:35:11;-24065.94;;;8.91;nan
7105;BME280;3594;42.152;24.714;2022-12-08T10:37:37;-23963.38;;;5.25;nan
7105;BME280;3594;42.152;24.714;2022-12-08T10:40:11;-24063.09;;;8.81;nan
7105;BME280;3594;42.152;24.714;2022-12-08T10:42:56;-24073.00;;;9.16;nan
7105;BME280;3594;42.152;24.714;2022-12-08T10:50:46;-24055.75;;;8.55;nan
7105;BME280;3594;42.152;24.714;2022-12-08T10:53:28;-24062.38;;;8.78;nan
7105;BME280;3594;42.152;24.714;2022-12-08T10:58:32;-24066.91;;;8.95;nan
7105;BME280;3594;42.152;24.714;2022-12-08T11:01:17;-24075.25;;;9.24;nan
7105;BME280;3594;42.152;24.714;2022-12-08T11:03:55;-24048.94;;;8.30;nan
7105;BME280;3594;42.152;24.714;2022-12-08T11:09:04;-24052.47;;;8.43;nan
7105;BME280;3594;42.152;24.714;2022-12-08T11:14:59;-24061.81;;;8.76;nan
7105;BME280;3594;42.152;24.714;2022-12-08T11:17:07;-24065.06;;;8.88;nan
7105;BME280;3594;42.152;24.714;2022-12-08T11:19:37;-24060.41;;;8.71;nan
7105;BME280;3594;42.152;24.714;2022-12-08T11:27:46;-24061.97;;;8.77;nan
7105;BME280;3594;42.152;24.714;2022-12-08T11:30:15;-24062.53;;;8.79;nan
7105;BME280;3594;42.152;24.714;2022-12-08T11:32:43;-24068.91;;;9.02;nan
7105;BME280;3594;42.152;24.714;2022-12-08T11:35:29;-24066.91;;;8.95;nan
7105;BME280;3594;42.152;24.714;2022-12-08T11:38:02;-24059.56;;;8.68;nan
7105;BME280;3594;42.152;24.714;2022-12-08T11:40:33;-24063.09;;;8.81;nan
7105;BME280;3594;42.152;24.714;2022-12-08T11:43:07;-24033.78;;;7.76;nan
7105;BME280;3594;42.152;24.714;2022-12-08T11:45:40;-24062.66;;;8.79;nan
7105;BME280;3594;42.152;24.714;2022-12-08T11:48:13;-24064.09;;;8.84;nan
7105;BME280;3594;42.152;24.714;2022-12-08T11:50:52;-24055.75;;;8.55;nan
7105;BME280;3594;42.152;24.714;2022-12-08T11:55:57;-24059.28;;;8.67;nan
7105;BME280;3594;42.152;24.714;2022-12-08T11:58:30;-24066.50;;;8.93;nan
7105;BME280;3594;42.152;24.714;2022-12-08T12:01:00;-24069.31;;;9.03;nan
7105;BME280;3594;42.152;24.714;2022-12-08T12:06:02;-24060.41;;;8.71;nan
7105;BME280;3594;42.152;24.714;2022-12-08T12:20:02;-24055.59;;;8.54;nan
7105;BME280;3594;42.152;24.714;2022-12-08T12:22:32;-24050.22;;;8.35;nan
7105;BME280;3594;42.152;24.714;2022-12-08T12:24:59;-24046.25;;;8.21;nan
7105;BME280;3594;42.152;24.714;2022-12-08T12:27:37;-24050.66;;;8.36;nan
7105;BME280;3594;42.152;24.714;2022-12-08T12:30:07;-24042.00;;;8.06;nan
7105;BME280;3594;42.152;24.714;2022-12-08T12:32:46;-23992.38;;;6.29;nan
7105;BME280;3594;42.152;24.714;2022-12-08T12:35:37;-24049.09;;;8.31;nan
7105;BME280;3594;42.152;24.714;2022-12-08T12:38:20;-24054.47;;;8.50;nan
7105;BME280;3594;42.152;24.714;2022-12-08T12:41:05;-24047.53;;;8.25;nan
7105;BME280;3594;42.152;24.714;2022-12-08T12:43:34;-24049.66;;;8.33;nan
7105;BME280;3594;42.152;24.714;2022-12-08T12:48:48;-24058.00;;;8.63;nan
7105;BME280;3594;42.152;24.714;2022-12-08T12:54:37;-24051.63;;;8.40;nan
7105;BME280;3594;42.152;24.714;2022-12-08T12:59:49;-24052.19;;;8.42;nan
7105;BME280;3594;42.152;24.714;2022-12-08T13:02:37;-23998.91;;;6.52;nan
7105;BME280;3594;42.152;24.714;2022-12-08T13:05:26;-24054.75;;;8.51;nan
7105;BME280;3594;42.152;24.714;2022-12-08T13:10:37;-24052.91;;;8.45;nan
7105;BME280;3594;42.152;24.714;2022-12-08T13:15:36;-24059.84;;;8.69;nan
7105;BME280;3594;42.152;24.714;2022-12-08T13:18:03;-24059.28;;;8.67;nan
7105;BME280;3594;42.152;24.714;2022-12-08T13:20:29;-24049.09;;;8.31;nan
7105;BME280;3594;42.152;24.714;2022-12-08T13:23:11;-24054.59;;;8.51;nan
7105;BME280;3594;42.152;24.714;2022-12-08T13:25:44;-24060.41;;;8.71;nan
7105;BME280;3594;42.152;24.714;2022-12-08T13:28:23;-24052.06;;;8.41;nan
7105;BME280;3594;42.152;24.714;2022-12-08T13:30:57;-24057.00;;;8.59;nan
7105;BME280;3594;42.152;24.714;2022-12-08T13:35:55;-24045.41;;;8.18;nan
7105;BME280;3594;42.152;24.714;2022-12-08T13:38:27;-24050.66;;;8.36;nan
7105;BME280;3594;42.152;24.714;2022-12-08T13:40:54;-24059.69;;;8.69;nan
7105;BME280;3594;42.152;24.714;2022-12-08T13:43:34;-24058.44;;;8.64;nan
7105;BME280;3594;42.152;24.714;2022-12-08T13:46:05;-24053.06;;;8.45;nan
7105;BME280;3594;42.152;24.714;2022-12-08T13:48:49;-24058.84;;;8.66;nan
7105;BME280;3594;42.152;24.714;2022-12-08T13:51:21;-24052.06;;;8.41;nan
7105;BME280;3594;42.152;24.714;2022-12-08T13:54:22;-24052.63;;;8.43;nan
7105;BME280;3594;42.152;24.714;2022-12-08T13:56:50;-24041.44;;;8.04;nan
7105;BME280;3594;42.152;24.714;2022-12-08T14:01:46;-24051.06;;;8.38;nan
7105;BME280;3594;42.152;24.714;2022-12-08T14:04:16;-24051.06;;;8.38;nan
7105;BME280;3594;42.152;24.714;2022-12-08T14:06:44;-24049.66;;;8.33;nan
7105;BME280;3594;42.152;24.714;2022-12-08T14:09:14;-24049.66;;;8.33;nan
7105;BME280;3594;42.152;24.714;2022-12-08T14:11:46;-24045.81;;;8.19;nan
7105;BME280;3594;42.152;24.714;2022-12-08T14:16:47;-24053.75;;;8.48;nan
7105;BME280;3594;42.152;24.714;2022-12-08T14:21:45;-24058.16;;;8.63;nan
7105;BME280;3594;42.152;24.714;2022-12-08T14:24:11;-24053.34;;;8.46;nan
7105;BME280;3594;42.152;24.714;2022-12-08T14:26:39;-24041.16;;;8.03;nan
7105;BME280;3594;42.152;24.714;2022-12-08T14:29:07;-24048.66;;;8.29;nan
7105;BME280;3594;42.152;24.714;2022-12-08T14:31:34;-24044.69;;;8.15;nan
7105;BME280;3594;42.152;24.714;2022-12-08T14:33:59;-24048.38;;;8.28;nan
7105;BME280;3594;42.152;24.714;2022-12-08T14:36:25;-24043.00;;;8.09;nan
7105;BME280;3594;42.152;24.714;2022-12-08T14:38:54;-24044.97;;;8.16;nan
7105;BME280;3594;42.152;24.714;2022-12-08T14:41:25;-24047.53;;;8.25;nan
7105;BME280;3594;42.152;24.714;2022-12-08T14:43:59;-24044.41;;;8.14;nan
7105;BME280;3594;42.152;24.714;2022-12-08T14:46:25;-24039.72;;;7.97;nan
7105;BME280;3594;42.152;24.714;2022-12-08T14:48:51;-24044.84;;;8.16;nan
7105;BME280;3594;42.152;24.714;2022-12-08T14:56:19;-24044.84;;;8.16;nan
7105;BME280;3594;42.152;24.714;2022-12-08T14:58:48;-24048.38;;;8.28;nan
7105;BME280;3594;42.152;24.714;2022-12-08T15:01:17;-24048.94;;;8.30;nan
7105;BME280;3594;42.152;24.714;2022-12-08T15:03:46;-24037.47;;;7.89;nan
7105;BME280;3594;42.152;24.714;2022-12-08T15:06:12;-24036.06;;;7.84;nan
7105;BME280;3594;42.152;24.714;2022-12-08T15:08:55;-24045.97;;;8.20;nan
7105;BME280;3594;42.152;24.714;2022-12-08T15:13:50;-24036.34;;;7.85;nan
7105;BME280;3594;42.152;24.714;2022-12-08T15:16:36;-24044.13;;;8.13;nan
7105;BME280;3594;42.152;24.714;2022-12-08T15:21:49;-24044.56;;;8.15;nan
7105;BME280;3594;42.152;24.714;2022-12-08T15:24:15;-24046.69;;;8.22;nan
7105;BME280;3594;42.152;24.714;2022-12-08T15:26:46;-24038.03;;;7.91;nan
7105;BME280;3594;42.152;24.714;2022-12-08T15:29:24;-24044.97;;;8.16;nan
7105;BME280;3594;42.152;24.714;2022-12-08T15:31:52;-24034.63;;;7.79;nan
7105;BME280;3594;42.152;24.714;2022-12-08T15:34:19;-24044.69;;;8.15;nan
7105;BME280;3594;42.152;24.714;2022-12-08T15:36:46;-24038.59;;;7.93;nan
7105;BME280;3594;42.152;24.714;2022-12-08T15:39:24;-24044.56;;;8.15;nan